Maxwell AFB, Alabama
Current Conditions -  °F | °C
As of 10:58 PM on Monday 20 Oct 2014 (Local Time) from KMXF Reporting Station
Clear Clear  
Wind Chill: 54°   Ceiling: Unl
Heat Index: 54°   Visibility: 10mi
Dew Point: 54°   Wind: 1mph
Humidity: 99%   Direction: 230°SW
Pressure: 30.02"   Gusts: NA
Location:  32.3797°N, 86.3233°W
Report Text: KMXF 210358Z AUTO 23001KT 10SM CLR 12/12 A3002 RMK AO2 SLP168 T01240123
Loading
Personal Weather Stations






























Interactive Weather Map
Tropical Storm Tracking
New forecast layout! Learn more

10-Day Weather Forecast

Advertisements
Track Severe Weather on mobile